Search for airport 
image banner adimage banner adimage banner ad
image banner ad

KINS - Creech Afb

Located in Indian Springs, United States

ICAO - INS, IATA - INS

Data provided by Airmate  

General information

Coordinates: N36°35'11" W115°40'39"
Elevation is 3134 feet MSL.
Magnetic variation is 15° East
View others Airports in Nevada

Operational data

Special qualification required
Current time UTC:
Current local time:
Weather
METAR: KINS 290858Z AUTO 27004KT 10SM BKN160 29/10 A3002 RMK AO2 SLP108 T02850097 58002 $
TAF: TAF AMD KINS 290609Z 2906/3011 36012KT 9999 VCSH FEW080 BKN120 QNH2998INS SHRA OMTNS BECMG 2910/2911 30009KT 9999 NSW BKN120 QNH2998INS BECMG 2916/2917 10009KT 9999 FEW100 SCT120 QNH2996INS BECMG 2919/2920 13012KT 9999 FEW100 BKN250 QNH2987INS TS OMTNS TEMPO 2922/3002 VRB20G35KT VCTS BKN100CB BECMG 3001/3002 VRB25G40KT 8000 -TSRA BLDU SCT050 BKN080CB QNH2987INS BECMG 3007/3008 16020G35KT 9999 VCTS SCT100CB BKN250 QNH2994INS TX38/2923Z TN22/2913Z
View NOTAMs / SUP AIP / TFR affecting this airport [VIEW]
Communications frequencies: [VIEW]

Runways:

RWY identifierQFULength (ft)Width (ft)SurfaceLDA (ft)
0893°9002150ASPH
26273°9002150ASPH
135476100ASPH
315476100ASPH

Airport contact information

Address: Indian Springs United States

Satellite view of KINS